Time;durP1;ratioP1;P1;durP2;ratioP2;P2;SDS_P1;SDS_P2;PMS_P1;PMS_P2;Temp;Humidity;BMP_temperature;BMP_pressure;BME280_temperature;BME280_humidity;BME280_pressure;Samples;Min_cycle;Max_cycle;Signal;HPM_P1;HPM_P2
2021/01/26 00:02:06;;;;;;;24.53;11.60;;;;;;;;;;4911727;28;20617;-77
2021/01/26 00:04:29;;;;;;;18.87;9.30;;;0.50;1.00;;;;;;4878242;28;21438;-76
2021/01/26 00:06:51;;;;;;;24.73;11.73;;;;;;;;;;4913090;28;20184;-76
2021/01/26 00:09:13;;;;;;;24.83;10.87;;;;;;;;;;4913879;28;20654;-77
2021/01/26 00:11:36;;;;;;;20.23;9.77;;;;;;;;;;4912774;28;21252;-80
2021/01/26 00:13:58;;;;;;;18.73;9.40;;;;;;;;;;4914295;28;20576;-76
2021/01/26 00:16:23;;;;;;;20.57;9.70;;;;;;;;;;4912979;28;20709;-76
2021/01/26 00:18:46;;;;;;;20.80;10.67;;;;;;;;;;4912563;28;20686;-76
2021/01/26 00:21:09;;;;;;;20.27;10.47;;;0.40;1.00;;;;;;4911592;28;20710;-76
2021/01/26 00:23:32;;;;;;;15.97;9.53;;;0.70;99.90;;;;;;4896365;28;20640;-76
2021/01/26 00:25:54;;;;;;;18.77;10.33;;;0.60;83.00;;;;;;4912774;28;20702;-77
2021/01/26 00:28:17;;;;;;;20.50;11.33;;;0.50;1.00;;;;;;4914114;28;20199;-77
2021/01/26 00:30:41;;;;;;;18.43;9.77;;;0.40;1.00;;;;;;4913488;28;20620;-76
2021/01/26 00:33:08;;;;;;;20.80;10.43;;;0.40;99.90;;;;;;4913185;28;20204;-76
2021/01/26 00:35:31;;;;;;;17.60;10.30;;;0.40;1.00;;;;;;4907572;28;20241;-76
2021/01/26 00:37:54;;;;;;;19.73;10.23;;;0.30;1.00;;;;;;4914635;28;20636;-76
2021/01/26 00:40:17;;;;;;;17.53;9.60;;;0.30;1.00;;;;;;4914534;28;21236;-76
2021/01/26 00:42:39;;;;;;;17.77;9.87;;;;;;;;;;4914676;28;20601;-79
2021/01/26 00:45:06;;;;;;;21.37;10.60;;;0.20;99.90;;;;;;4912986;28;20615;-78
2021/01/26 00:47:28;;;;;;;18.90;10.40;;;;;;;;;;4913593;28;20627;-76
2021/01/26 00:49:50;;;;;;;20.23;10.53;;;;;;;;;;4913351;28;20613;-76
2021/01/26 00:52:13;;;;;;;23.60;11.33;;;;;;;;;;4895719;28;20651;-76
2021/01/26 00:54:36;;;;;;;20.57;10.83;;;0.20;1.00;;;;;;4912880;28;20621;-76
2021/01/26 00:56:59;;;;;;;23.90;11.27;;;;;;;;;;4912987;28;20663;-78
2021/01/26 00:59:21;;;;;;;20.87;10.97;;;;;;;;;;4912569;28;20709;-79
2021/01/26 01:01:49;;;;;;;20.90;10.67;;;0.40;1.00;;;;;;4910712;28;20687;-78
2021/01/26 01:04:11;;;;;;;26.50;12.33;;;;;;;;;;4912362;28;20222;-76
2021/01/26 01:06:33;;;;;;;19.93;10.00;;;;;;;;;;4912810;28;20616;-77
2021/01/26 01:08:56;;;;;;;20.07;10.67;;;;;;;;;;4879326;28;20625;-76
2021/01/26 01:11:19;;;;;;;16.93;10.03;;;0.10;1.00;;;;;;4913625;28;20620;-77
2021/01/26 01:13:41;;;;;;;16.33;9.73;;;;;;;;;;4907938;28;20614;-79
2021/01/26 01:16:03;;;;;;;21.03;10.47;;;;;;;;;;4924747;28;20686;-78
2021/01/26 01:18:26;;;;;;;17.87;9.53;;;;;;;;;;4925559;28;21236;-79
2021/01/26 01:20:49;;;;;;;17.07;9.77;;;;;;;;;;4916284;28;20647;-78
2021/01/26 01:23:13;;;;;;;22.90;11.93;;;;;;;;;;4915895;28;20319;-76
2021/01/26 01:25:35;;;;;;;19.67;10.67;;;;;;;;;;4916395;28;20613;-76
2021/01/26 01:27:58;;;;;;;22.87;11.20;;;0.20;1.00;;;;;;4916824;28;20689;-77
2021/01/26 01:30:23;;;;;;;19.50;11.60;;;-0.20;1.00;;;;;;4917320;28;20670;-77
2021/01/26 01:32:45;;;;;;;19.87;10.70;;;;;;;;;;4915908;28;20632;-76
2021/01/26 01:35:09;;;;;;;22.17;11.37;;;0.30;1.00;;;;;;4898563;28;20659;-78
2021/01/26 01:37:31;;;;;;;20.87;10.63;;;;;;;;;;4916122;28;20624;-77
2021/01/26 01:39:53;;;;;;;17.73;10.67;;;;;;;;;;4915618;28;20658;-77
2021/01/26 01:42:16;;;;;;;24.37;12.10;;;;;;;;;;4915656;28;20624;-80
2021/01/26 01:44:39;;;;;;;21.93;11.07;;;0.10;1.00;;;;;;4898615;28;20621;-80
2021/01/26 01:47:03;;;;;;;20.60;10.57;;;0.10;1.00;;;;;;4915747;28;20691;-79
2021/01/26 01:49:28;;;;;;;18.33;10.60;;;0.10;1.00;;;;;;4915318;28;20670;-80
2021/01/26 01:51:51;;;;;;;21.83;11.13;;;;;;;;;;4917220;28;20609;-79
2021/01/26 01:54:17;;;;;;;23.40;12.63;;;0.00;1.00;;;;;;4916723;28;20658;-77
2021/01/26 01:56:44;;;;;;;18.13;10.17;;;0.10;1.00;;;;;;4915790;28;20629;-77
2021/01/26 01:59:12;;;;;;;24.07;11.47;;;0.10;1.00;;;;;;4915215;28;20648;-76
2021/01/26 02:01:36;;;;;;;17.53;10.20;;;0.00;1.00;;;;;;4908542;28;21181;-76
2021/01/26 02:04:02;;;;;;;17.07;9.93;;;0.00;1.00;;;;;;4898516;28;20630;-76
2021/01/26 02:06:28;;;;;;;19.00;10.07;;;0.10;1.00;;;;;;4915105;28;20612;-80
2021/01/26 02:08:55;;;;;;;17.20;9.73;;;0.10;1.00;;;;;;4915687;28;21220;-76
2021/01/26 02:11:18;;;;;;;21.50;9.90;;;;;;;;;;4914958;28;21262;-77
2021/01/26 02:13:40;;;;;;;17.33;9.47;;;;;;;;;;4916698;28;20935;-78
2021/01/26 02:16:04;;;;;;;20.10;10.00;;;0.00;99.90;;;;;;4916358;28;20670;-77
2021/01/26 02:18:44;;;;;;;17.50;9.60;;;0.10;99.90;;;;;;4915439;28;21313;-79
2021/01/26 02:21:59;;;;;;;23.57;10.70;;;-0.20;99.90;;;;;;4914973;28;20616;-78
2021/01/26 02:25:01;;;;;;;19.23;10.07;;;0.50;99.90;;;;;;4897129;28;20629;-78
2021/01/26 02:27:53;;;;;;;22.40;10.43;;;0.10;1.00;;;;;;4916060;28;20692;-77
2021/01/26 02:30:31;;;;;;;16.07;8.93;;;0.20;1.00;;;;;;4914749;28;20658;-77
2021/01/26 02:33:42;;;;;;;17.90;9.73;;;0.10;1.00;;;;;;4916436;28;20585;-79
2021/01/26 02:36:35;;;;;;;18.60;10.13;;;-0.40;1.00;;;;;;4904977;28;20671;-79
2021/01/26 02:39:35;;;;;;;16.17;9.10;;;0.10;99.90;;;;;;4879444;28;20656;-79
2021/01/26 02:42:18;;;;;;;15.27;9.07;;;0.10;99.90;;;;;;4865334;28;20654;-78
2021/01/26 02:44:53;;;;;;;16.00;9.00;;;0.20;99.90;;;;;;4881018;28;20614;-77
2021/01/26 02:47:21;;;;;;;21.03;10.30;;;0.20;1.00;;;;;;4939070;27;21195;-77
2021/01/26 02:49:49;;;;;;;17.20;8.20;;;0.20;1.00;;;;;;4915053;28;20636;-78
2021/01/26 02:52:22;;;;;;;22.93;11.17;;;0.20;1.00;;;;;;4888799;28;20695;-78
2021/01/26 02:54:52;;;;;;;17.20;9.57;;;0.20;1.00;;;;;;4914772;28;20638;-80
2021/01/26 02:57:20;;;;;;;20.17;9.83;;;0.20;1.00;;;;;;4914336;28;20637;-80
2021/01/26 02:59:52;;;;;;;16.20;9.27;;;0.20;1.00;;;;;;4914078;28;20668;-80
2021/01/26 03:02:21;;;;;;;20.13;9.53;;;0.20;99.90;;;;;;4894060;28;20614;-80
2021/01/26 03:04:50;;;;;;;17.03;9.70;;;0.20;99.90;;;;;;4915785;28;20601;-78
2021/01/26 03:07:15;;;;;;;23.63;11.23;;;0.10;99.90;;;;;;4897007;28;20638;-79
2021/01/26 03:09:41;;;;;;;20.77;11.63;;;0.10;1.00;;;;;;4914503;28;20693;-78
2021/01/26 03:12:08;;;;;;;26.57;13.03;;;0.20;1.00;;;;;;4915357;28;21161;-79
2021/01/26 03:14:39;;;;;;;24.33;13.67;;;0.20;1.00;;;;;;4908325;28;21017;-79
2021/01/26 03:17:09;;;;;;;28.37;14.07;;;0.20;1.00;;;;;;4897218;28;20617;-79
2021/01/26 03:19:34;;;;;;;24.77;13.90;;;0.20;1.00;;;;;;4908530;28;21153;-81
2021/01/26 03:22:00;;;;;;;22.73;13.03;;;0.10;1.00;;;;;;4914161;28;20616;-79
2021/01/26 03:24:26;;;;;;;23.63;13.87;;;0.20;1.00;;;;;;4896930;28;20197;-77
2021/01/26 03:26:48;;;;;;;24.00;14.40;;;;;;;;;;4896783;28;21251;-77
2021/01/26 03:29:14;;;;;;;25.17;14.03;;;0.20;1.00;;;;;;4896240;28;21280;-76
2021/01/26 03:31:43;;;;;;;23.10;13.60;;;0.20;1.00;;;;;;4913800;28;20666;-77
2021/01/26 03:34:06;;;;;;;28.80;14.90;;;;;;;;;;4914835;28;20609;-78
2021/01/26 03:36:28;;;;;;;24.00;14.13;;;;;;;;;;4906368;28;20689;-78
2021/01/26 03:38:52;;;;;;;19.50;12.87;;;0.20;1.00;;;;;;4913722;28;20648;-77
2021/01/26 03:41:14;;;;;;;24.83;12.90;;;;;;;;;;4915086;28;20604;-80
2021/01/26 03:43:36;;;;;;;22.07;13.07;;;;;;;;;;4915225;28;20639;-81
2021/01/26 03:46:06;;;;;;;19.30;11.37;;;0.40;1.00;;;;;;4896605;28;21000;-77
2021/01/26 03:48:44;;;;;;;20.57;11.30;;;0.30;1.00;;;;;;4907734;28;20605;-79
2021/01/26 03:51:11;;;;;;;26.53;12.17;;;0.30;1.00;;;;;;4913121;28;20682;-79
2021/01/26 03:53:58;;;;;;;18.33;10.47;;;0.30;1.00;;;;;;4915215;28;20613;-77
2021/01/26 03:56:30;;;;;;;19.40;10.77;;;0.30;1.00;;;;;;4896786;28;20629;-78
2021/01/26 03:59:10;;;;;;;16.90;10.07;;;0.30;1.00;;;;;;4896373;28;21068;-79
2021/01/26 04:01:40;;;;;;;18.77;9.80;;;0.30;1.00;;;;;;4905028;28;21052;-77
2021/01/26 04:04:07;;;;;;;18.83;9.80;;;0.20;1.00;;;;;;4912888;28;20690;-79
2021/01/26 04:06:37;;;;;;;19.87;10.80;;;0.10;1.00;;;;;;4907699;28;20625;-79
2021/01/26 04:09:04;;;;;;;19.27;10.97;;;0.10;1.00;;;;;;4914815;28;20639;-78
2021/01/26 04:11:30;;;;;;;22.37;10.57;;;0.10;1.00;;;;;;4905546;28;20624;-82
2021/01/26 04:14:00;;;;;;;18.77;9.60;;;0.10;1.00;;;;;;4913330;28;20617;-80
2021/01/26 04:16:26;;;;;;;21.60;9.50;;;0.00;1.00;;;;;;4914794;28;20646;-81
2021/01/26 04:18:50;;;;;;;17.60;9.00;;;0.00;1.00;;;;;;4914869;28;20648;-79
2021/01/26 04:21:13;;;;;;;22.17;10.80;;;-0.10;1.00;;;;;;4896258;28;20691;-79
2021/01/26 04:23:36;;;;;;;17.83;9.00;;;;;;;;;;4896190;28;21229;-77
2021/01/26 04:26:07;;;;;;;15.30;9.50;;;0.30;1.00;;;;;;4880283;28;21009;-78
2021/01/26 04:28:36;;;;;;;17.03;9.67;;;-0.20;1.00;;;;;;4889230;28;20642;-77
2021/01/26 04:30:58;;;;;;;18.53;11.33;;;;;;;;;;4896996;28;20726;-78
2021/01/26 04:33:20;;;;;;;26.27;12.30;;;;;;;;;;4923758;28;20617;-78
2021/01/26 04:35:43;;;;;;;22.13;11.23;;;;;;;;;;4907321;28;20663;-76
2021/01/26 04:38:06;;;;;;;22.83;11.00;;;-0.10;1.00;;;;;;4916797;28;20600;-80
2021/01/26 04:40:31;;;;;;;19.57;11.70;;;-0.10;1.00;;;;;;4889127;28;21217;-78
2021/01/26 04:43:02;;;;;;;20.97;11.87;;;0.00;1.00;;;;;;4896425;28;20618;-79
2021/01/26 04:45:32;;;;;;;21.53;11.00;;;0.10;1.00;;;;;;4895799;28;20637;-80
2021/01/26 04:48:03;;;;;;;16.53;9.80;;;0.20;1.00;;;;;;4918087;28;21202;-82
2021/01/26 04:50:30;;;;;;;19.37;10.87;;;0.20;1.00;;;;;;4900114;28;20633;-79
2021/01/26 04:53:16;;;;;;;18.10;10.97;;;0.20;1.00;;;;;;4916794;28;20620;-78
2021/01/26 04:56:02;;;;;;;18.70;10.40;;;0.20;1.00;;;;;;4912221;28;20577;-79
2021/01/26 04:58:48;;;;;;;17.37;10.27;;;0.20;1.00;;;;;;4916488;28;20621;-79
2021/01/26 05:01:19;;;;;;;20.73;10.23;;;0.30;1.00;;;;;;4885930;28;20682;-79
2021/01/26 05:04:04;;;;;;;19.30;10.10;;;0.30;1.00;;;;;;4916430;28;20624;-80
2021/01/26 05:06:33;;;;;;;17.97;10.30;;;0.30;1.00;;;;;;4905234;28;20628;-82
2021/01/26 05:08:59;;;;;;;17.53;10.60;;;0.20;1.00;;;;;;4899337;28;20641;-79
2021/01/26 05:11:26;;;;;;;19.80;10.43;;;0.20;1.00;;;;;;4916375;28;20624;-79
2021/01/26 05:13:51;;;;;;;19.20;10.83;;;0.20;1.00;;;;;;4916687;28;20987;-78
2021/01/26 05:16:21;;;;;;;22.80;12.00;;;0.20;1.00;;;;;;4916067;28;20745;-81
2021/01/26 05:18:49;;;;;;;19.83;10.97;;;0.10;1.00;;;;;;4916199;28;20655;-80
2021/01/26 05:21:18;;;;;;;24.67;12.10;;;0.10;1.00;;;;;;4917545;28;20646;-79
2021/01/26 05:23:44;;;;;;;17.07;10.67;;;0.00;1.00;;;;;;4898779;28;20661;-78
2021/01/26 05:26:12;;;;;;;21.90;11.30;;;-0.10;1.00;;;;;;4917276;28;20993;-80
2021/01/26 05:28:35;;;;;;;18.97;10.60;;;;;;;;;;4899042;28;20730;-80
2021/01/26 05:31:05;;;;;;;18.57;11.40;;;;;;;;;;4917732;28;20770;-80
2021/01/26 05:33:27;;;;;;;18.80;11.17;;;;;;;;;;4908389;28;20662;-80
2021/01/26 05:35:53;;;;;;;18.87;11.37;;;-0.20;1.00;;;;;;4917462;28;21026;-80
2021/01/26 05:38:17;;;;;;;22.13;11.63;;;-0.20;1.00;;;;;;4916957;28;20984;-80
2021/01/26 05:40:42;;;;;;;18.30;11.53;;;-0.20;1.00;;;;;;4916108;28;20649;-79
2021/01/26 05:43:09;;;;;;;22.93;12.17;;;-0.20;1.00;;;;;;4898861;28;21028;-79
2021/01/26 05:45:36;;;;;;;19.10;11.43;;;-0.20;1.00;;;;;;4910366;28;20616;-79
2021/01/26 05:48:05;;;;;;;20.87;12.23;;;-0.20;1.00;;;;;;4916120;28;20635;-80
2021/01/26 05:50:30;;;;;;;22.80;13.37;;;-0.20;1.00;;;;;;4904936;28;20617;-79
2021/01/26 05:52:52;;;;;;;23.27;12.47;;;;;;;;;;4921730;28;20376;-80
2021/01/26 05:55:21;;;;;;;25.23;13.17;;;-0.20;1.00;;;;;;4914195;28;20612;-80
2021/01/26 05:57:43;;;;;;;15.03;10.27;;;;;;;;;;4916046;28;20952;-79
2021/01/26 06:00:22;;;;;;;23.47;11.20;;;-0.20;1.00;;;;;;4916544;28;20644;-80
2021/01/26 06:02:45;;;;;;;19.23;11.60;;;-0.20;1.00;;;;;;4910982;28;20589;-80
2021/01/26 06:05:10;;;;;;;21.63;12.47;;;0.60;1.00;;;;;;4915451;28;21197;-79
2021/01/26 06:07:32;;;;;;;19.37;12.10;;;;;;;;;;4898534;28;20652;-79
2021/01/26 06:09:54;;;;;;;17.93;10.47;;;;;;;;;;4915258;28;20651;-80
2021/01/26 06:12:21;;;;;;;21.43;10.77;;;-0.20;1.00;;;;;;4897850;28;20687;-80
2021/01/26 06:14:45;;;;;;;16.77;10.93;;;-0.20;1.00;;;;;;4916638;28;20670;-80
2021/01/26 06:17:10;;;;;;;22.77;11.37;;;-0.20;1.00;;;;;;4898035;28;21171;-80
2021/01/26 06:19:33;;;;;;;19.87;11.73;;;;;;;;;;4915236;28;20653;-79
2021/01/26 06:21:55;;;;;;;22.50;13.40;;;;;;;;;;4914915;28;21150;-79
2021/01/26 06:24:18;;;;;;;25.00;13.90;;;-0.20;1.00;;;;;;4914541;28;20644;-79
2021/01/26 06:26:44;;;;;;;17.13;11.47;;;-0.20;1.00;;;;;;4916581;28;20184;-78
2021/01/26 06:29:20;;;;;;;24.63;12.37;;;-0.20;1.00;;;;;;4916073;28;20654;-79
2021/01/26 06:32:08;;;;;;;20.17;11.87;;;-0.10;1.00;;;;;;4916699;28;20580;-80
2021/01/26 06:34:49;;;;;;;25.40;13.33;;;-0.10;1.00;;;;;;4910724;28;20988;-79
2021/01/26 06:37:38;;;;;;;29.30;14.17;;;0.00;6.70;;;;;;4916007;28;20966;-78
2021/01/26 06:40:20;;;;;;;24.67;14.97;;;0.00;1.00;;;;;;4901549;28;20656;-78
2021/01/26 06:42:55;;;;;;;23.30;14.23;;;0.00;1.00;;;;;;4908836;28;21185;-79
2021/01/26 06:45:25;;;;;;;29.23;15.23;;;0.00;1.00;;;;;;4908382;28;20649;-76
2021/01/26 06:48:28;;;;;;;29.90;14.53;;;0.10;1.00;;;;;;4913993;28;20649;-77
2021/01/26 06:51:14;;;;;;;25.20;15.07;;;0.20;1.00;;;;;;4890125;28;21114;-77
2021/01/26 06:53:51;;;;;;;27.40;15.23;;;0.20;1.00;;;;;;4885468;28;21181;-76
2021/01/26 06:56:33;;;;;;;29.33;14.37;;;0.20;1.00;;;;;;4905356;28;21187;-77
2021/01/26 06:59:22;;;;;;;22.73;13.37;;;0.30;1.00;;;;;;4897562;28;20706;-77
2021/01/26 07:02:20;;;;;;;24.23;13.40;;;0.30;1.00;;;;;;4912210;28;21082;-76
2021/01/26 07:05:09;;;;;;;27.00;13.80;;;0.30;1.00;;;;;;4897280;28;21252;-76
2021/01/26 07:08:13;;;;;;;28.33;15.53;;;0.20;1.00;;;;;;4883398;28;20633;-76
2021/01/26 07:10:59;;;;;;;30.80;14.83;;;0.40;1.00;;;;;;4912528;28;20710;-76
2021/01/26 07:13:31;;;;;;;26.83;15.10;;;0.40;1.00;;;;;;4914349;28;21266;-77
2021/01/26 07:16:08;;;;;;;27.80;14.73;;;0.50;1.00;;;;;;4915293;28;20644;-76
2021/01/26 07:18:55;;;;;;;19.93;11.43;;;0.50;1.00;;;;;;4913669;28;20998;-76
2021/01/26 07:21:31;;;;;;;30.23;14.90;;;0.60;1.00;;;;;;4913553;28;20650;-75
2021/01/26 07:24:11;;;;;;;22.73;12.70;;;0.60;1.00;;;;;;4915042;28;20636;-76
2021/01/26 07:26:57;;;;;;;24.93;13.33;;;0.60;1.00;;;;;;4912945;28;21226;-76
2021/01/26 07:29:40;;;;;;;25.57;13.73;;;0.70;1.00;;;;;;4914661;28;21074;-76
2021/01/26 07:32:09;;;;;;;26.80;13.57;;;2.30;1.00;;;;;;4912787;28;20637;-76
2021/01/26 07:34:36;;;;;;;23.67;12.50;;;0.70;1.00;;;;;;4911498;28;21239;-76
2021/01/26 07:37:07;;;;;;;27.80;14.23;;;2.70;1.00;;;;;;4905234;28;20238;-76
2021/01/26 07:39:36;;;;;;;23.43;13.33;;;0.90;1.00;;;;;;4888957;28;20654;-76
2021/01/26 07:42:05;;;;;;;22.83;12.10;;;0.90;1.00;;;;;;4913306;28;20670;-76
2021/01/26 07:44:34;;;;;;;20.17;11.47;;;0.90;1.00;;;;;;4913173;28;20200;-77
2021/01/26 07:47:04;;;;;;;19.60;11.03;;;1.00;99.90;;;;;;4914649;28;20230;-76
2021/01/26 07:49:35;;;;;;;21.93;12.60;;;1.00;99.90;;;;;;4913102;28;21224;-76
2021/01/26 07:52:02;;;;;;;20.03;11.87;;;1.10;99.90;;;;;;4913457;28;20188;-76
2021/01/26 07:54:31;;;;;;;19.43;11.53;;;1.10;99.90;;;;;;4913654;28;21241;-76
2021/01/26 07:56:57;;;;;;;23.00;11.93;;;1.20;99.90;;;;;;4912528;28;20625;-76
2021/01/26 07:59:25;;;;;;;20.23;10.87;;;1.20;64.80;;;;;;4896264;28;21090;-75
2021/01/26 08:01:51;;;;;;;18.17;10.37;;;1.30;99.90;;;;;;4912136;28;20180;-76
2021/01/26 08:04:13;;;;;;;21.07;10.83;;;;;;;;;;4913757;28;20596;-76
2021/01/26 08:06:49;;;;;;;18.70;10.23;;;1.40;1.00;;;;;;4913756;28;20597;-76
2021/01/26 08:09:13;;;;;;;21.73;11.67;;;1.40;99.90;;;;;;4914966;28;20654;-75
2021/01/26 08:11:36;;;;;;;17.37;10.50;;;;;;;;;;4915197;28;20638;-76
2021/01/26 08:14:08;;;;;;;17.33;9.13;;;1.50;1.00;;;;;;4912651;28;20628;-76
2021/01/26 08:16:34;;;;;;;21.20;11.83;;;1.60;1.00;;;;;;4896945;28;20667;-76
2021/01/26 08:18:57;;;;;;;20.47;10.93;;;1.60;99.90;;;;;;4915276;28;20180;-76
2021/01/26 08:21:32;;;;;;;21.90;11.57;;;1.70;1.00;;;;;;4914273;28;20705;-75
2021/01/26 08:24:26;;;;;;;20.37;10.83;;;1.70;1.00;;;;;;4883602;28;20225;-76
2021/01/26 08:26:50;;;;;;;16.87;8.80;;;1.80;3.10;;;;;;4919098;28;20172;-75
2021/01/26 08:29:48;;;;;;;18.13;9.87;;;1.90;1.00;;;;;;4917462;28;20257;-75
2021/01/26 08:32:43;;;;;;;20.57;10.20;;;2.10;99.90;;;;;;4917160;28;20203;-78
2021/01/26 08:35:08;;;;;;;20.83;10.70;;;2.20;1.00;;;;;;4896622;28;20201;-76
2021/01/26 08:37:46;;;;;;;17.27;9.37;;;2.20;1.00;;;;;;4899416;28;20188;-76
2021/01/26 08:40:10;;;;;;;17.10;9.13;;;2.30;99.90;;;;;;4897512;28;20645;-76
2021/01/26 08:43:01;;;;;;;18.90;10.03;;;2.40;1.00;;;;;;4881347;28;20254;-77
2021/01/26 08:45:53;;;;;;;16.40;9.30;;;2.50;99.90;;;;;;4880225;28;20193;-75
2021/01/26 08:48:24;;;;;;;18.43;10.10;;;2.70;99.90;;;;;;4911599;28;21014;-76
2021/01/26 08:51:04;;;;;;;16.83;9.60;;;2.80;1.00;;;;;;4917102;28;20245;-76
2021/01/26 08:53:35;;;;;;;18.90;10.67;;;2.90;1.00;;;;;;4917137;28;20226;-76
2021/01/26 08:55:59;;;;;;;15.20;8.90;;;3.10;99.90;;;;;;4917822;28;20179;-76
2021/01/26 08:58:41;;;;;;;18.27;10.07;;;3.10;99.90;;;;;;4918321;28;20192;-76
2021/01/26 09:01:05;;;;;;;16.33;9.37;;;3.10;99.90;;;;;;4915075;28;20292;-76
2021/01/26 09:03:31;;;;;;;14.40;8.90;;;3.20;1.00;;;;;;4917044;28;20237;-75
2021/01/26 09:05:56;;;;;;;20.87;11.13;;;3.10;1.00;;;;;;4917836;28;20246;-76
2021/01/26 09:08:47;;;;;;;22.50;11.83;;;3.10;99.90;;;;;;4917901;28;20176;-76
2021/01/26 09:11:15;;;;;;;19.93;10.93;;;3.00;99.90;;;;;;4918091;28;20181;-76
2021/01/26 09:13:37;;;;;;;20.47;10.73;;;3.00;1.00;;;;;;4916795;28;20225;-77
2021/01/26 09:16:04;;;;;;;19.30;11.00;;;2.80;98.70;;;;;;4918054;28;20233;-76
2021/01/26 09:18:30;;;;;;;18.03;10.13;;;2.80;99.90;;;;;;4917393;28;20188;-77
2021/01/26 09:21:00;;;;;;;17.83;10.60;;;3.00;1.00;;;;;;4916314;28;20701;-76
2021/01/26 09:23:23;;;;;;;16.03;9.97;;;2.90;99.90;;;;;;4917780;28;20249;-77
2021/01/26 09:25:46;;;;;;;14.93;9.77;;;2.90;99.90;;;;;;4917362;28;20565;-76
2021/01/26 09:28:10;;;;;;;21.13;11.10;;;3.00;99.90;;;;;;4917025;28;20692;-75
2021/01/26 09:30:33;;;;;;;16.67;10.10;;;3.00;99.90;;;;;;4917818;28;20192;-75
2021/01/26 09:33:04;;;;;;;17.43;9.23;;;3.00;1.00;;;;;;4915815;28;20265;-76
2021/01/26 09:35:32;;;;;;;18.10;10.73;;;3.10;1.00;;;;;;4917763;28;20205;-76
2021/01/26 09:38:11;;;;;;;17.13;10.60;;;3.20;99.90;;;;;;4917094;28;20203;-76
2021/01/26 09:40:34;;;;;;;17.37;10.83;;;;;;;;;;4917536;28;20722;-77
2021/01/26 09:43:16;;;;;;;15.87;9.27;;;2.90;1.00;;;;;;4895002;28;20665;-76
2021/01/26 09:45:39;;;;;;;17.40;10.10;;;3.10;1.00;;;;;;4907902;28;20180;-76
2021/01/26 09:48:02;;;;;;;25.90;11.67;;;;;;;;;;4914948;28;20273;-76
2021/01/26 09:50:28;;;;;;;16.80;9.13;;;3.00;1.00;;;;;;4914407;28;20293;-77
2021/01/26 09:52:57;;;;;;;15.07;9.30;;;3.10;1.00;;;;;;4915592;28;20699;-76
2021/01/26 09:55:20;;;;;;;19.03;10.90;;;;;;;;;;4915623;28;20196;-76
2021/01/26 09:57:43;;;;;;;20.60;11.33;;;3.20;1.00;;;;;;4898722;28;20239;-75
2021/01/26 10:00:08;;;;;;;17.17;9.07;;;3.40;1.00;;;;;;4897655;28;20273;-77
2021/01/26 10:02:30;;;;;;;14.07;7.77;;;;;;;;;;4912513;28;20188;-76
2021/01/26 10:04:54;;;;;;;17.53;9.27;;;3.40;1.00;;;;;;4915598;28;20196;-76
2021/01/26 10:07:18;;;;;;;16.50;8.17;;;3.40;1.00;;;;;;4898061;28;20758;-78
2021/01/26 10:09:42;;;;;;;18.23;10.07;;;3.50;1.00;;;;;;4914494;28;20257;-75
2021/01/26 10:12:24;;;;;;;21.73;10.03;;;3.40;1.00;;;;;;4914613;28;20211;-77
2021/01/26 10:15:14;;;;;;;15.43;8.23;;;3.50;99.90;;;;;;4916722;28;20257;-76
2021/01/26 10:18:04;;;;;;;16.03;8.70;;;3.40;1.00;;;;;;4916868;28;20711;-77
2021/01/26 10:20:28;;;;;;;13.27;8.00;;;3.50;1.00;;;;;;4892425;28;20330;-76
2021/01/26 10:23:01;;;;;;;19.93;8.73;;;3.50;1.00;;;;;;4861569;28;20221;-75
2021/01/26 10:25:24;;;;;;;10.73;7.27;;;3.50;1.00;;;;;;4895685;28;20251;-77
2021/01/26 10:27:47;;;;;;;16.40;8.70;;;;;;;;;;4897021;28;20246;-76
2021/01/26 10:30:15;;;;;;;19.47;9.00;;;3.60;1.00;;;;;;4894794;28;20261;-75
2021/01/26 10:32:44;;;;;;;15.23;7.90;;;3.90;99.90;;;;;;4895789;28;20184;-76
2021/01/26 10:35:23;;;;;;;17.20;8.03;;;3.90;99.90;;;;;;4894287;28;20201;-75
2021/01/26 10:37:45;;;;;;;12.50;7.13;;;3.80;1.00;;;;;;4888327;28;20204;-76
2021/01/26 10:40:33;;;;;;;16.53;9.03;;;3.60;1.00;;;;;;4894642;28;20224;-76
2021/01/26 10:43:10;;;;;;;16.50;9.43;;;3.80;1.00;;;;;;4896647;28;20172;-79
2021/01/26 10:45:52;;;;;;;19.37;10.80;;;4.00;1.00;;;;;;4893752;28;20188;-75
2021/01/26 10:48:30;;;;;;;22.10;10.93;;;3.90;1.00;;;;;;4910659;28;20199;-76
2021/01/26 10:50:54;;;;;;;20.90;10.50;;;4.30;99.90;;;;;;4897192;28;20189;-75
2021/01/26 10:53:31;;;;;;;20.13;9.50;;;3.90;99.90;;;;;;4897153;28;20294;-75
2021/01/26 10:55:55;;;;;;;18.50;9.03;;;3.90;99.90;;;;;;4913213;28;20248;-76
2021/01/26 10:58:17;;;;;;;19.80;8.20;;;;;;;;;;4915644;28;20683;-76
2021/01/26 11:00:39;;;;;;;41.03;12.57;;;;;;;;;;4895557;28;20224;-77
2021/01/26 11:03:02;;;;;;;11.63;7.40;;;;;;;;;;4915197;28;20177;-76
2021/01/26 11:05:25;;;;;;;11.90;7.03;;;3.40;99.90;;;;;;4897946;28;20188;-76
2021/01/26 11:07:47;;;;;;;13.50;6.93;;;;;;;;;;4914905;28;20685;-76
2021/01/26 11:10:11;;;;;;;17.37;8.13;;;3.90;1.00;;;;;;4915455;28;20533;-75
2021/01/26 11:12:34;;;;;;;15.20;7.57;;;3.70;1.00;;;;;;4896528;28;20200;-76
2021/01/26 11:14:56;;;;;;;11.57;6.10;;;;;;;;;;4914092;28;20669;-77
2021/01/26 11:17:19;;;;;;;21.90;8.50;;;;;;;;;;4914410;28;20738;-76
2021/01/26 11:19:42;;;;;;;14.00;7.17;;;3.70;35.50;;;;;;4915547;28;20184;-76
2021/01/26 11:22:05;;;;;;;11.87;6.40;;;3.80;99.90;;;;;;4912727;28;20292;-75
2021/01/26 11:24:27;;;;;;;13.03;6.70;;;;;;;;;;4912679;28;20665;-76
2021/01/26 11:26:49;;;;;;;14.83;7.43;;;3.40;1.00;;;;;;4913301;28;20200;-75
2021/01/26 11:29:12;;;;;;;18.97;7.67;;;3.30;99.90;;;;;;4911319;28;20200;-76
2021/01/26 11:31:37;;;;;;;14.73;7.57;;;3.10;1.00;;;;;;4912103;28;20192;-78
2021/01/26 11:34:00;;;;;;;15.90;7.90;;;;;;;;;;4895527;28;20565;-78
2021/01/26 11:36:23;;;;;;;19.07;8.30;;;;;;;;;;4909554;28;20568;-78
2021/01/26 11:38:45;;;;;;;17.53;8.40;;;;;;;;;;4907680;28;20681;-76
2021/01/26 11:41:08;;;;;;;19.83;8.80;;;;;;;;;;4914365;28;20215;-76
2021/01/26 11:43:30;;;;;;;22.03;10.30;;;3.00;99.90;;;;;;4895714;28;20700;-75
2021/01/26 11:45:53;;;;;;;15.60;8.93;;;2.50;99.90;;;;;;4914667;28;20673;-76
2021/01/26 11:48:15;;;;;;;18.03;8.17;;;2.70;1.00;;;;;;4914466;28;20192;-77
2021/01/26 11:50:38;;;;;;;12.37;6.70;;;2.40;99.90;;;;;;4913355;28;20257;-78
2021/01/26 11:53:01;;;;;;;12.87;6.60;;;;;;;;;;4879713;28;20197;-77
2021/01/26 11:55:26;;;;;;;14.40;6.77;;;2.40;1.00;;;;;;4895021;28;21033;-78
2021/01/26 11:57:48;;;;;;;9.57;5.40;;;3.10;12.90;;;;;;4914733;28;20184;-77
2021/01/26 12:00:12;;;;;;;25.53;7.97;;;3.40;1.00;;;;;;4912105;28;20200;-77
2021/01/26 12:02:35;;;;;;;13.57;6.63;;;4.50;99.90;;;;;;4910846;28;20210;-77
2021/01/26 12:04:58;;;;;;;12.57;5.97;;;;;;;;;;4913900;28;20229;-77
2021/01/26 12:07:20;;;;;;;17.17;7.17;;;;;;;;;;4911796;28;20567;-76
2021/01/26 12:09:43;;;;;;;12.20;5.57;;;6.90;1.00;;;;;;4914837;28;20577;-77
2021/01/26 12:12:06;;;;;;;12.00;6.13;;;7.90;1.00;;;;;;4895190;28;20188;-75
2021/01/26 12:14:29;;;;;;;11.10;5.80;;;;;;;;;;4896214;28;20718;-77
2021/01/26 12:16:51;;;;;;;9.20;5.10;;;7.80;99.90;;;;;;4912559;28;20680;-74
2021/01/26 12:19:15;;;;;;;13.33;6.20;;;8.40;1.00;;;;;;4913820;28;20264;-78
2021/01/26 12:21:37;;;;;;;11.83;6.50;;;;;;;;;;4908146;28;20253;-77
2021/01/26 12:23:59;;;;;;;7.40;5.10;;;10.40;99.90;;;;;;4913189;28;20546;-77
2021/01/26 12:26:21;;;;;;;10.37;6.40;;;11.20;99.90;;;;;;4894901;28;20250;-77
2021/01/26 12:28:46;;;;;;;8.43;5.10;;;12.30;1.00;;;;;;4913285;28;20180;-76
2021/01/26 12:31:08;;;;;;;12.17;5.87;;;13.40;99.90;;;;;;4906013;28;20249;-74
2021/01/26 12:33:31;;;;;;;5.87;3.63;;;14.40;99.90;;;;;;4913470;28;20241;-77
2021/01/26 12:35:54;;;;;;;7.50;4.17;;;15.60;99.90;;;;;;4913097;28;20237;-74
2021/01/26 12:38:16;;;;;;;5.50;3.17;;;;;;;;;;4914091;28;20188;-74
2021/01/26 12:40:39;;;;;;;4.53;2.60;;;;;;;;;;4914220;28;20253;-73
2021/01/26 12:43:01;;;;;;;5.50;3.27;;;13.20;99.90;;;;;;4914285;28;20192;-73
2021/01/26 12:45:26;;;;;;;2.73;2.50;;;12.10;1.00;;;;;;4912254;28;20539;-74
2021/01/26 12:47:49;;;;;;;4.03;3.03;;;;;;;;;;4912343;28;20195;-74
2021/01/26 12:50:16;;;;;;;6.70;4.83;;;9.70;1.00;;;;;;4911853;28;20196;-73
2021/01/26 12:52:39;;;;;;;7.03;4.73;;;9.20;1.00;;;;;;4913649;28;20192;-76
2021/01/26 12:55:02;;;;;;;7.10;5.07;;;8.00;99.90;;;;;;4911036;28;20212;-77
2021/01/26 12:57:24;;;;;;;6.73;5.57;;;;;;;;;;4919791;28;20324;-77
2021/01/26 12:59:47;;;;;;;6.70;5.00;;;7.30;99.90;;;;;;4913800;28;20188;-76
2021/01/26 13:02:09;;;;;;;9.70;6.03;;;;;;;;;;4909957;28;20347;-77
2021/01/26 13:04:32;;;;;;;9.43;4.87;;;;;;;;;;4913815;28;20249;-75
2021/01/26 13:06:54;;;;;;;7.50;5.13;;;5.00;99.90;;;;;;4912217;28;20253;-77
2021/01/26 13:09:17;;;;;;;11.17;6.73;;;6.10;99.90;;;;;;4915906;28;20183;-75
2021/01/26 13:11:39;;;;;;;10.33;6.60;;;5.20;99.90;;;;;;4915769;28;20192;-75
2021/01/26 13:14:02;;;;;;;11.23;6.33;;;;;;;;;;4917012;28;20236;-75
2021/01/26 13:16:24;;;;;;;12.33;7.63;;;;;;;;;;4916365;28;20203;-77